sensor_id;sensor_type;location;lat;lon;timestamp;pressure;altitude;pressure_sealevel;temperature;humidity
56632;BME280;42503;39.928;-75.152;2023-03-22T00:02:20;102731.91;;;23.62;30.21
56632;BME280;42503;39.928;-75.152;2023-03-22T00:12:21;102758.28;;;23.66;30.61
56632;BME280;42503;39.928;-75.152;2023-03-22T00:22:23;102751.06;;;23.70;30.61
56632;BME280;42503;39.928;-75.152;2023-03-22T00:32:28;102753.94;;;23.75;30.80
56632;BME280;42503;39.928;-75.152;2023-03-22T00:42:35;102742.59;;;23.65;30.69
56632;BME280;42503;39.928;-75.152;2023-03-22T00:52:37;102772.41;;;23.76;30.58
56632;BME280;42503;39.928;-75.152;2023-03-22T01:02:39;102769.03;;;23.74;30.19
56632;BME280;42503;39.928;-75.152;2023-03-22T01:12:42;102778.00;;;23.76;30.54
56632;BME280;42503;39.928;-75.152;2023-03-22T01:22:44;102772.94;;;23.73;30.75
56632;BME280;42503;39.928;-75.152;2023-03-22T01:32:45;102786.53;;;23.87;31.13
56632;BME280;42503;39.928;-75.152;2023-03-22T01:42:49;102781.28;;;23.90;31.53
56632;BME280;42503;39.928;-75.152;2023-03-22T01:52:55;102778.56;;;24.17;30.33
56632;BME280;42503;39.928;-75.152;2023-03-22T02:02:57;102783.78;;;24.30;30.09
56632;BME280;42503;39.928;-75.152;2023-03-22T02:33:32;102793.69;;;24.60;29.97
56632;BME280;42503;39.928;-75.152;2023-03-22T02:54:21;102790.44;;;24.24;30.26
56632;BME280;42503;39.928;-75.152;2023-03-22T03:04:36;102802.34;;;24.15;30.80
56632;BME280;42503;39.928;-75.152;2023-03-22T03:14:39;102782.53;;;23.99;30.78
56632;BME280;42503;39.928;-75.152;2023-03-22T03:35:14;102805.16;;;23.98;30.52
56632;BME280;42503;39.928;-75.152;2023-03-22T03:45:21;102814.03;;;23.95;30.85
56632;BME280;42503;39.928;-75.152;2023-03-22T03:55:23;102819.47;;;24.01;30.40
56632;BME280;42503;39.928;-75.152;2023-03-22T04:05:26;102809.06;;;23.97;30.51
56632;BME280;42503;39.928;-75.152;2023-03-22T04:15:28;102808.59;;;24.05;29.97
56632;BME280;42503;39.928;-75.152;2023-03-22T04:25:32;102801.25;;;23.99;29.98
56632;BME280;42503;39.928;-75.152;2023-03-22T04:35:33;102728.53;;;23.60;29.81
56632;BME280;42503;39.928;-75.152;2023-03-22T04:45:35;102797.41;;;24.05;29.99
56632;BME280;42503;39.928;-75.152;2023-03-22T04:55:36;102780.16;;;23.91;29.78
56632;BME280;42503;39.928;-75.152;2023-03-22T05:05:37;102781.81;;;23.87;29.40
56632;BME280;42503;39.928;-75.152;2023-03-22T05:15:39;102809.13;;;24.02;29.49
56632;BME280;42503;39.928;-75.152;2023-03-22T05:25:41;102805.72;;;24.00;29.22
56632;BME280;42503;39.928;-75.152;2023-03-22T05:35:45;102794.34;;;23.84;29.10
56632;BME280;42503;39.928;-75.152;2023-03-22T05:45:46;102805.66;;;23.95;29.08
56632;BME280;42503;39.928;-75.152;2023-03-22T05:55:48;102805.59;;;23.90;29.31
56632;BME280;42503;39.928;-75.152;2023-03-22T06:05:49;102816.84;;;23.95;29.16
56632;BME280;42503;39.928;-75.152;2023-03-22T06:15:53;102802.16;;;23.82;28.99
56632;BME280;42503;39.928;-75.152;2023-03-22T06:25:55;102826.84;;;23.91;28.80
56632;BME280;42503;39.928;-75.152;2023-03-22T06:35:56;102814.41;;;23.81;28.83
56632;BME280;42503;39.928;-75.152;2023-03-22T06:45:59;102819.50;;;23.84;28.21
56632;BME280;42503;39.928;-75.152;2023-03-22T06:56:00;102796.63;;;23.71;29.13
56632;BME280;42503;39.928;-75.152;2023-03-22T07:06:04;102798.09;;;23.73;28.71
56632;BME280;42503;39.928;-75.152;2023-03-22T07:16:06;102804.69;;;23.67;28.27
56632;BME280;42503;39.928;-75.152;2023-03-22T07:26:08;102781.03;;;23.58;28.21
56632;BME280;42503;39.928;-75.152;2023-03-22T07:36:09;102767.66;;;23.60;28.12
56632;BME280;42503;39.928;-75.152;2023-03-22T07:46:11;102748.50;;;23.52;28.18
56632;BME280;42503;39.928;-75.152;2023-03-22T07:56:13;102754.25;;;23.62;28.12
56632;BME280;42503;39.928;-75.152;2023-03-22T08:06:14;102742.44;;;23.55;28.46
56632;BME280;42503;39.928;-75.152;2023-03-22T08:16:19;102762.75;;;23.67;28.15
56632;BME280;42503;39.928;-75.152;2023-03-22T08:26:23;102757.06;;;23.62;28.35
56632;BME280;42503;39.928;-75.152;2023-03-22T08:36:24;102761.66;;;23.68;28.17
56632;BME280;42503;39.928;-75.152;2023-03-22T08:46:26;102759.38;;;23.65;28.38
56632;BME280;42503;39.928;-75.152;2023-03-22T08:56:27;102754.91;;;23.64;28.24
56632;BME280;42503;39.928;-75.152;2023-03-22T09:06:29;102709.75;;;23.39;28.16
56632;BME280;42503;39.928;-75.152;2023-03-22T09:16:31;102768.94;;;23.69;28.45
56632;BME280;42503;39.928;-75.152;2023-03-22T09:26:35;102740.41;;;23.50;28.50
56632;BME280;42503;39.928;-75.152;2023-03-22T09:36:36;102763.59;;;23.68;28.12
56632;BME280;42503;39.928;-75.152;2023-03-22T09:46:42;102768.34;;;23.67;28.31
56632;BME280;42503;39.928;-75.152;2023-03-22T10:17:31;102764.78;;;23.55;28.41
56632;BME280;42503;39.928;-75.152;2023-03-22T10:27:36;102739.38;;;23.40;28.31
56632;BME280;42503;39.928;-75.152;2023-03-22T10:37:38;102723.28;;;23.30;28.54
56632;BME280;42503;39.928;-75.152;2023-03-22T10:48:02;102781.63;;;23.60;28.46
56632;BME280;42503;39.928;-75.152;2023-03-22T10:58:17;102785.84;;;23.63;28.21
56632;BME280;42503;39.928;-75.152;2023-03-22T11:08:18;102770.19;;;23.45;28.35
56632;BME280;42503;39.928;-75.152;2023-03-22T11:18:23;102797.28;;;23.61;27.92
56632;BME280;42503;39.928;-75.152;2023-03-22T11:28:34;102767.22;;;23.51;28.33
56632;BME280;42503;39.928;-75.152;2023-03-22T11:38:39;102778.50;;;23.56;31.06
56632;BME280;42503;39.928;-75.152;2023-03-22T11:48:41;102752.56;;;23.44;30.81
56632;BME280;42503;39.928;-75.152;2023-03-22T11:58:55;102788.16;;;23.66;29.94
56632;BME280;42503;39.928;-75.152;2023-03-22T12:20:11;102757.81;;;23.57;29.24
56632;BME280;42503;39.928;-75.152;2023-03-22T12:30:25;102764.44;;;23.34;29.42
56632;BME280;42503;39.928;-75.152;2023-03-22T12:40:35;102750.47;;;23.34;29.08
56632;BME280;42503;39.928;-75.152;2023-03-22T12:50:52;102750.28;;;23.58;29.59
56632;BME280;42503;39.928;-75.152;2023-03-22T13:01:10;102779.53;;;23.67;28.85
56632;BME280;42503;39.928;-75.152;2023-03-22T13:11:22;102766.66;;;23.66;29.58
56632;BME280;42503;39.928;-75.152;2023-03-22T13:21:26;102753.41;;;23.62;29.69
56632;BME280;42503;39.928;-75.152;2023-03-22T13:42:20;102741.59;;;23.38;29.57
56632;BME280;42503;39.928;-75.152;2023-03-22T13:52:28;102701.13;;;23.23;29.29
56632;BME280;42503;39.928;-75.152;2023-03-22T14:02:33;102719.97;;;23.50;29.26
56632;BME280;42503;39.928;-75.152;2023-03-22T14:13:01;102687.03;;;23.52;29.75
56632;BME280;42503;39.928;-75.152;2023-03-22T14:23:31;102709.41;;;23.52;29.37
56632;BME280;42503;39.928;-75.152;2023-03-22T14:33:37;102700.06;;;23.63;29.13
56632;BME280;42503;39.928;-75.152;2023-03-22T14:43:49;102688.22;;;23.56;29.11
56632;BME280;42503;39.928;-75.152;2023-03-22T14:53:51;102698.53;;;23.72;28.92
56632;BME280;42503;39.928;-75.152;2023-03-22T15:04:03;102710.38;;;23.79;29.09
56632;BME280;42503;39.928;-75.152;2023-03-22T15:14:07;102708.22;;;23.87;29.20
56632;BME280;42503;39.928;-75.152;2023-03-22T15:34:32;102665.28;;;23.93;29.11
56632;BME280;42503;39.928;-75.152;2023-03-22T15:44:33;102652.47;;;23.97;29.50
56632;BME280;42503;39.928;-75.152;2023-03-22T15:55:09;102607.69;;;23.70;29.33
56632;BME280;42503;39.928;-75.152;2023-03-22T16:05:10;102601.44;;;23.84;29.52
56632;BME280;42503;39.928;-75.152;2023-03-22T16:15:21;102605.56;;;24.04;29.25
56632;BME280;42503;39.928;-75.152;2023-03-22T16:25:23;102566.81;;;23.91;30.23
56632;BME280;42503;39.928;-75.152;2023-03-22T16:35:26;102558.25;;;23.97;30.50
56632;BME280;42503;39.928;-75.152;2023-03-22T16:45:33;102543.94;;;23.94;30.50
56632;BME280;42503;39.928;-75.152;2023-03-22T16:55:34;102549.63;;;24.04;30.74
56632;BME280;42503;39.928;-75.152;2023-03-22T17:05:38;102513.03;;;24.05;30.63
56632;BME280;42503;39.928;-75.152;2023-03-22T17:15:47;102512.72;;;24.02;30.59
56632;BME280;42503;39.928;-75.152;2023-03-22T17:25:49;102461.31;;;23.81;30.91
56632;BME280;42503;39.928;-75.152;2023-03-22T17:35:52;102393.81;;;23.40;30.51
56632;BME280;42503;39.928;-75.152;2023-03-22T17:45:53;102485.13;;;24.11;30.60
56632;BME280;42503;39.928;-75.152;2023-03-22T17:55:55;102451.28;;;24.12;30.86
56632;BME280;42503;39.928;-75.152;2023-03-22T18:05:56;102434.50;;;24.12;30.45
56632;BME280;42503;39.928;-75.152;2023-03-22T18:15:58;102357.53;;;23.72;30.59
56632;BME280;42503;39.928;-75.152;2023-03-22T18:26:01;102394.19;;;24.08;30.66
56632;BME280;42503;39.928;-75.152;2023-03-22T18:36:03;102375.75;;;24.12;30.76
56632;BME280;42503;39.928;-75.152;2023-03-22T18:46:09;102367.38;;;24.12;30.21
56632;BME280;42503;39.928;-75.152;2023-03-22T18:56:11;102323.72;;;24.06;30.26
56632;BME280;42503;39.928;-75.152;2023-03-22T19:06:14;102281.06;;;23.83;30.35
56632;BME280;42503;39.928;-75.152;2023-03-22T19:16:18;102267.94;;;23.89;30.62
56632;BME280;42503;39.928;-75.152;2023-03-22T19:26:21;102286.25;;;24.07;30.42
56632;BME280;42503;39.928;-75.152;2023-03-22T19:36:24;102279.50;;;24.03;30.57
56632;BME280;42503;39.928;-75.152;2023-03-22T19:46:25;102278.66;;;24.02;30.83
56632;BME280;42503;39.928;-75.152;2023-03-22T19:56:30;102273.91;;;24.03;31.27
56632;BME280;42503;39.928;-75.152;2023-03-22T20:06:31;102264.97;;;24.01;31.31
56632;BME280;42503;39.928;-75.152;2023-03-22T20:16:34;102237.00;;;24.01;31.16
56632;BME280;42503;39.928;-75.152;2023-03-22T20:26:37;102214.34;;;23.97;30.94
56632;BME280;42503;39.928;-75.152;2023-03-22T20:36:39;102212.09;;;23.99;31.13
56632;BME280;42503;39.928;-75.152;2023-03-22T20:46:43;102188.59;;;24.00;31.17
56632;BME280;42503;39.928;-75.152;2023-03-22T20:56:44;102172.13;;;23.99;32.28
56632;BME280;42503;39.928;-75.152;2023-03-22T21:06:46;102146.44;;;24.07;33.75
56632;BME280;42503;39.928;-75.152;2023-03-22T21:16:48;102034.69;;;23.59;33.52
56632;BME280;42503;39.928;-75.152;2023-03-22T21:26:50;102105.31;;;24.02;33.08
56632;BME280;42503;39.928;-75.152;2023-03-22T21:36:51;102095.50;;;24.00;33.09
56632;BME280;42503;39.928;-75.152;2023-03-22T21:46:53;102105.59;;;24.01;32.80
56632;BME280;42503;39.928;-75.152;2023-03-22T21:56:58;102108.97;;;24.08;32.69
56632;BME280;42503;39.928;-75.152;2023-03-22T22:07:00;102101.41;;;24.14;32.80
56632;BME280;42503;39.928;-75.152;2023-03-22T22:17:02;102080.44;;;24.06;32.55
56632;BME280;42503;39.928;-75.152;2023-03-22T22:27:04;102108.16;;;24.18;32.50
56632;BME280;42503;39.928;-75.152;2023-03-22T22:37:09;102051.84;;;23.83;32.03
56632;BME280;42503;39.928;-75.152;2023-03-22T22:47:10;102106.19;;;24.13;32.04
56632;BME280;42503;39.928;-75.152;2023-03-22T22:57:11;102118.47;;;24.12;32.32
56632;BME280;42503;39.928;-75.152;2023-03-22T23:07:13;102081.50;;;23.95;32.06
56632;BME280;42503;39.928;-75.152;2023-03-22T23:17:15;102111.44;;;23.99;32.24
56632;BME280;42503;39.928;-75.152;2023-03-22T23:27:19;102122.91;;;24.03;32.10
56632;BME280;42503;39.928;-75.152;2023-03-22T23:37:31;102116.78;;;24.01;32.29
56632;BME280;42503;39.928;-75.152;2023-03-22T23:47:36;102100.56;;;24.03;32.20
56632;BME280;42503;39.928;-75.152;2023-03-22T23:57:38;102089.88;;;23.90;32.78
